Time;durP1;ratioP1;P1;durP2;ratioP2;P2;SDS_P1;SDS_P2;PMS_P1;PMS_P2;Temp;Humidity;BMP_temperature;BMP_pressure;BME280_temperature;BME280_humidity;BME280_pressure;Samples;Min_cycle;Max_cycle;Signal;HPM_P1;HPM_P2
2022/03/17 00:00:07;;;;;;;;;;;7.50;99.90;;;;;;4951132;28;19950;-79
2022/03/17 00:02:34;;;;;;;;;;;7.50;99.90;;;;;;4948670;28;19958;-79
2022/03/17 00:05:01;;;;;;;;;;;7.50;99.90;;;;;;4941602;28;19937;-79
2022/03/17 00:07:30;;;;;;;;;;;7.50;99.90;;;;;;4951316;28;19942;-79
2022/03/17 00:09:57;;;;;;;;;;;7.50;99.90;;;;;;4958953;28;19927;-80
2022/03/17 00:12:24;;;;;;;;;;;7.40;99.90;;;;;;4954811;28;19933;-79
2022/03/17 00:14:51;;;;;;;;;;;7.40;99.90;;;;;;4950280;28;19927;-79
2022/03/17 00:17:18;;;;;;;;;;;7.40;99.90;;;;;;4935819;28;19934;-79
2022/03/17 00:19:46;;;;;;;;;;;7.40;99.90;;;;;;4950489;28;19927;-80
2022/03/17 00:22:15;;;;;;;;;;;7.40;99.90;;;;;;4944460;28;19969;-79
2022/03/17 00:24:44;;;;;;;;;;;7.40;99.90;;;;;;4949775;28;19982;-79
2022/03/17 00:27:11;;;;;;;;;;;7.40;99.90;;;;;;4937876;28;19926;-79
2022/03/17 00:29:38;;;;;;;;;;;7.40;99.90;;;;;;4939633;28;20460;-79
2022/03/17 00:32:06;;;;;;;;;;;7.40;99.90;;;;;;4957073;28;19949;-79
2022/03/17 00:34:33;;;;;;;;;;;7.30;99.90;;;;;;4937882;28;19926;-79
2022/03/17 00:37:00;;;;;;;;;;;7.30;99.90;;;;;;4944847;28;20416;-79
2022/03/17 00:39:27;;;;;;;;;;;7.30;99.90;;;;;;4938308;28;19933;-79
2022/03/17 00:41:55;;;;;;;;;;;7.30;99.90;;;;;;4950751;28;19931;-79
2022/03/17 00:44:22;;;;;;;;;;;7.30;99.90;;;;;;4951896;28;20022;-80
2022/03/17 00:46:49;;;;;;;;;;;7.30;99.90;;;;;;4953609;28;19934;-79
2022/03/17 00:49:16;;;;;;;;;;;7.30;99.90;;;;;;4938721;28;20469;-79
2022/03/17 00:51:43;;;;;;;;;;;7.30;99.90;;;;;;4950264;28;20416;-78
2022/03/17 00:54:10;;;;;;;;;;;7.20;99.90;;;;;;4945751;28;19931;-79
2022/03/17 00:56:37;;;;;;;;;;;7.30;99.90;;;;;;4944223;28;19961;-80
2022/03/17 00:59:05;;;;;;;;;;;7.20;99.90;;;;;;4938029;28;19926;-79
2022/03/17 01:01:32;;;;;;;;;;;7.20;99.90;;;;;;4949671;28;19927;-80
2022/03/17 01:03:59;;;;;;;;;;;7.20;99.90;;;;;;4952099;28;19935;-80
2022/03/17 01:06:26;;;;;;;;;;;7.20;99.90;;;;;;4951941;28;19930;-78
2022/03/17 01:08:53;;;;;;;;;;;7.20;99.90;;;;;;4949974;28;19926;-79
2022/03/17 01:11:20;;;;;;;;;;;7.20;99.90;;;;;;4950763;28;19930;-79
2022/03/17 01:13:47;;;;;;;;;;;7.20;99.90;;;;;;4934420;28;19962;-79
2022/03/17 01:16:15;;;;;;;;;;;7.20;99.90;;;;;;4952599;28;19938;-79
2022/03/17 01:18:42;;;;;;;;;;;7.20;99.90;;;;;;4938417;28;20508;-79
2022/03/17 01:21:09;;;;;;;;;;;7.20;99.90;;;;;;4940369;28;19953;-79
2022/03/17 01:23:36;;;;;;;;;;;7.10;99.90;;;;;;4931605;28;20551;-79
2022/03/17 01:26:03;;;;;;;;;;;7.10;99.90;;;;;;4939664;28;19970;-79
2022/03/17 01:28:30;;;;;;;;;;;7.10;99.90;;;;;;4953786;28;19930;-78
2022/03/17 01:30:57;;;;;;;;;;;7.10;99.90;;;;;;4951781;28;19926;-79
2022/03/17 01:33:25;;;;;;;;;;;7.10;99.90;;;;;;4951910;28;19965;-79
2022/03/17 01:35:52;;;;;;;;;;;7.10;99.90;;;;;;4955521;28;19966;-79
2022/03/17 01:38:19;;;;;;;;;;;7.10;99.90;;;;;;4948469;28;19934;-79
2022/03/17 01:40:46;;;;;;;;;;;7.10;99.90;;;;;;4951089;28;19942;-79
2022/03/17 01:43:13;;;;;;;;;;;7.10;99.90;;;;;;4956657;28;19973;-79
2022/03/17 01:45:40;;;;;;;;;;;7.10;99.90;;;;;;4939089;28;19994;-79
2022/03/17 01:48:07;;;;;;;;;;;7.00;99.90;;;;;;4938242;28;19927;-79
2022/03/17 01:50:35;;;;;;;;;;;7.00;99.90;;;;;;4936692;28;19926;-79
2022/03/17 01:53:02;;;;;;;;;;;7.00;99.90;;;;;;4948709;28;19972;-78
2022/03/17 01:55:30;;;;;;;;;;;7.00;99.90;;;;;;4950344;28;19931;-79
2022/03/17 01:57:57;;;;;;;;;;;7.00;99.90;;;;;;4936205;28;19926;-79
2022/03/17 02:00:24;;;;;;;;;;;7.00;99.90;;;;;;4940278;28;19937;-79
2022/03/17 02:02:52;;;;;;;;;;;7.00;99.90;;;;;;4935846;28;19927;-79
2022/03/17 02:05:20;;;;;;;;;;;7.00;99.90;;;;;;4937970;28;19930;-79
2022/03/17 02:07:50;;;;;;;;;;;7.00;99.90;;;;;;4951029;28;20028;-78
2022/03/17 02:10:17;;;;;;;;;;;7.00;99.90;;;;;;4954439;28;19949;-78
2022/03/17 02:15:29;;;;;;;;;;;6.90;99.90;;;;;;4929281;28;19923;-79
2022/03/17 02:17:56;;;;;;;;;;;6.90;99.90;;;;;;4952673;28;20364;-79
2022/03/17 02:20:24;;;;;;;;;;;6.90;99.90;;;;;;4956862;28;19930;-80
2022/03/17 02:22:54;;;;;;;;;;;6.90;99.90;;;;;;4944286;28;20333;-79
2022/03/17 02:25:34;;;;;;;;;;;6.80;99.90;;;;;;4932598;28;19930;-79
2022/03/17 02:28:02;;;;;;;;;;;6.90;99.90;;;;;;4956415;28;19954;-79
2022/03/17 02:30:29;;;;;;;;;;;6.90;99.90;;;;;;4956180;28;19981;-79
2022/03/17 02:33:00;;;;;;;;;;;6.90;99.90;;;;;;4950562;28;19927;-79
2022/03/17 02:35:27;;;;;;;;;;;6.90;99.90;;;;;;4937469;28;19927;-79
2022/03/17 02:37:55;;;;;;;;;;;6.80;99.90;;;;;;4948573;28;19926;-79
2022/03/17 02:40:24;;;;;;;;;;;6.80;99.90;;;;;;4938788;29;19934;-79
2022/03/17 02:42:51;;;;;;;;;;;6.80;99.90;;;;;;4948857;28;20453;-79
2022/03/17 02:45:18;;;;;;;;;;;6.80;99.90;;;;;;4945385;28;20410;-78
2022/03/17 02:47:45;;;;;;;;;;;6.80;99.90;;;;;;4933142;28;19945;-79
2022/03/17 02:50:12;;;;;;;;;;;6.80;99.90;;;;;;4935767;29;19973;-79
2022/03/17 02:52:39;;;;;;;;;;;6.80;99.90;;;;;;4948205;28;19926;-79
2022/03/17 02:55:08;;;;;;;;;;;6.80;99.90;;;;;;4929090;28;20277;-78
2022/03/17 02:57:37;;;;;;;;;;;6.70;99.90;;;;;;4952559;28;20682;-79
2022/03/17 03:00:05;;;;;;;;;;;6.70;99.90;;;;;;4938156;28;20013;-79
2022/03/17 03:02:32;;;;;;;;;;;6.70;99.90;;;;;;4955071;28;19970;-79
2022/03/17 03:05:01;;;;;;;;;;;6.70;99.90;;;;;;4948084;28;20286;-79
2022/03/17 03:07:28;;;;;;;;;;;6.70;99.90;;;;;;4951300;28;19934;-79
2022/03/17 03:09:57;;;;;;;;;;;6.70;99.90;;;;;;4953677;28;20030;-78
2022/03/17 03:12:23;;;;;;;;;;;6.70;99.90;;;;;;4944938;28;19926;-79
2022/03/17 03:14:52;;;;;;;;;;;6.70;99.90;;;;;;4955180;28;19930;-79
2022/03/17 03:17:21;;;;;;;;;;;6.70;99.90;;;;;;4955327;28;20393;-79
2022/03/17 03:19:48;;;;;;;;;;;6.70;99.90;;;;;;4962992;28;20148;-79
2022/03/17 03:22:17;;;;;;;;;;;6.70;99.90;;;;;;4954759;28;19945;-79
2022/03/17 03:24:44;;;;;;;;;;;6.60;99.90;;;;;;4951187;28;20366;-79
2022/03/17 03:27:11;;;;;;;;;;;6.60;99.90;;;;;;4939119;28;19981;-80
2022/03/17 03:29:38;;;;;;;;;;;6.60;99.90;;;;;;4954768;28;19926;-79
2022/03/17 03:32:07;;;;;;;;;;;6.60;99.90;;;;;;4951764;28;20312;-79
2022/03/17 03:34:34;;;;;;;;;;;6.60;99.90;;;;;;4938173;28;19970;-79
2022/03/17 03:39:45;;;;;;;;;;;6.60;99.90;;;;;;4958157;28;19973;-78
2022/03/17 03:42:12;;;;;;;;;;;6.50;99.90;;;;;;4951582;28;20013;-79
2022/03/17 03:44:39;;;;;;;;;;;6.60;99.90;;;;;;4941206;28;19926;-79
2022/03/17 03:47:08;;;;;;;;;;;6.60;99.90;;;;;;4939853;28;19926;-79
2022/03/17 03:49:35;;;;;;;;;;;6.50;99.90;;;;;;4946936;28;19931;-78
2022/03/17 03:52:02;;;;;;;;;;;6.50;99.90;;;;;;4963154;28;19933;-79
2022/03/17 03:54:29;;;;;;;;;;;6.50;99.90;;;;;;4954288;28;19926;-78
2022/03/17 03:56:57;;;;;;;;;;;6.50;99.90;;;;;;4957803;28;20416;-79
2022/03/17 03:59:25;;;;;;;;;;;6.50;99.90;;;;;;4954013;28;19934;-78
2022/03/17 04:01:53;;;;;;;;;;;6.50;99.90;;;;;;4934468;28;20409;-79
2022/03/17 04:04:24;;;;;;;;;;;6.50;99.90;;;;;;4957536;28;19939;-79
2022/03/17 04:06:51;;;;;;;;;;;6.60;99.90;;;;;;4936699;28;19930;-79
2022/03/17 04:09:19;;;;;;;;;;;6.50;99.90;;;;;;4952773;28;19937;-79
2022/03/17 04:11:46;;;;;;;;;;;6.50;99.90;;;;;;4947892;28;20313;-78
2022/03/17 04:14:13;;;;;;;;;;;6.50;99.90;;;;;;4940152;28;19936;-79
2022/03/17 04:16:41;;;;;;;;;;;6.40;99.90;;;;;;4958506;28;20025;-79
2022/03/17 04:19:09;;;;;;;;;;;6.40;99.90;;;;;;4935719;28;19973;-79
2022/03/17 04:21:37;;;;;;;;;;;6.40;99.90;;;;;;4957919;28;19933;-79
2022/03/17 04:24:04;;;;;;;;;;;6.40;99.90;;;;;;4956610;28;19941;-79
2022/03/17 04:26:31;;;;;;;;;;;6.40;99.90;;;;;;4951869;28;19934;-79
2022/03/17 04:28:58;;;;;;;;;;;6.40;99.90;;;;;;4950373;28;19934;-79
2022/03/17 04:31:25;;;;;;;;;;;6.40;99.90;;;;;;4938851;29;20324;-79
2022/03/17 04:33:52;;;;;;;;;;;6.40;99.90;;;;;;4952021;28;19926;-79
2022/03/17 04:36:19;;;;;;;;;;;6.40;99.90;;;;;;4950595;28;20301;-79
2022/03/17 04:38:48;;;;;;;;;;;6.40;99.90;;;;;;4953100;28;19933;-79
2022/03/17 04:41:15;;;;;;;;;;;6.30;99.90;;;;;;4945069;28;19933;-79
2022/03/17 04:43:42;;;;;;;;;;;6.30;99.90;;;;;;4946605;28;19942;-79
2022/03/17 04:46:09;;;;;;;;;;;6.30;99.90;;;;;;4956471;28;20313;-78
2022/03/17 04:48:37;;;;;;;;;;;6.30;99.90;;;;;;4943422;28;19934;-78
2022/03/17 04:51:04;;;;;;;;;;;6.30;99.90;;;;;;4955209;28;20310;-78
2022/03/17 04:53:32;;;;;;;;;;;6.30;99.90;;;;;;5022454;23;20025;-77
2022/03/17 04:56:01;;;;;;;;;;;6.30;99.90;;;;;;4942073;28;19931;-76
2022/03/17 04:58:29;;;;;;;;;;;6.30;99.90;;;;;;4944725;28;20020;-77
2022/03/17 05:00:55;;;;;;;;;;;6.30;99.90;;;;;;4924839;28;19969;-76
2022/03/17 05:03:23;;;;;;;;;;;6.30;99.90;;;;;;4946045;28;20129;-76
2022/03/17 05:05:50;;;;;;;;;;;6.30;99.90;;;;;;4932715;28;19926;-76
2022/03/17 05:08:17;;;;;;;;;;;6.30;99.90;;;;;;4933536;28;19933;-76
2022/03/17 05:10:44;;;;;;;;;;;6.30;99.90;;;;;;4946211;28;20392;-76
2022/03/17 05:13:13;;;;;;;;;;;6.20;99.90;;;;;;4949199;28;20018;-76
2022/03/17 05:15:42;;;;;;;;;;;6.30;99.90;;;;;;4933147;28;20021;-76
2022/03/17 05:18:09;;;;;;;;;;;6.30;99.90;;;;;;4933238;28;20597;-76
2022/03/17 05:20:36;;;;;;;;;;;6.20;99.90;;;;;;4953617;28;19930;-76
2022/03/17 05:23:04;;;;;;;;;;;6.20;99.90;;;;;;4950208;28;20408;-75
2022/03/17 05:25:31;;;;;;;;;;;6.20;99.90;;;;;;4947217;28;20357;-76
2022/03/17 05:27:58;;;;;;;;;;;6.30;99.90;;;;;;4932023;28;20037;-76
2022/03/17 05:30:26;;;;;;;;;;;6.20;99.90;;;;;;4948660;28;20365;-77
2022/03/17 05:32:53;;;;;;;;;;;6.20;99.90;;;;;;4948960;28;20599;-76
2022/03/17 05:35:20;;;;;;;;;;;6.20;99.90;;;;;;4955408;28;19930;-76
2022/03/17 05:37:48;;;;;;;;;;;6.20;99.90;;;;;;4930524;28;19986;-76
2022/03/17 05:40:17;;;;;;;;;;;6.20;99.90;;;;;;4951047;28;20340;-76
2022/03/17 05:42:45;;;;;;;;;;;6.20;99.90;;;;;;4948160;28;19937;-77
2022/03/17 05:45:12;;;;;;;;;;;6.20;99.90;;;;;;4934821;29;19994;-76
2022/03/17 05:47:41;;;;;;;;;;;6.20;99.90;;;;;;4949581;28;20001;-76
2022/03/17 05:50:09;;;;;;;;;;;6.20;99.90;;;;;;4926679;28;20069;-76
2022/03/17 05:52:38;;;;;;;;;;;6.20;99.90;;;;;;4946279;28;19970;-76
2022/03/17 05:55:05;;;;;;;;;;;6.20;99.90;;;;;;4948136;28;20013;-76
2022/03/17 05:57:34;;;;;;;;;;;6.20;99.90;;;;;;4949216;28;19934;-76
2022/03/17 06:00:01;;;;;;;;;;;6.20;99.90;;;;;;4944829;28;19934;-75
2022/03/17 06:02:27;;;;;;;;;;;6.10;99.90;;;;;;4951539;28;19928;-76
2022/03/17 06:04:56;;;;;;;;;;;6.20;99.90;;;;;;4951125;28;20396;-75
2022/03/17 06:07:23;;;;;;;;;;;6.10;99.90;;;;;;4948246;28;19987;-76
2022/03/17 06:09:49;;;;;;;;;;;6.10;99.90;;;;;;4953356;28;19946;-78
2022/03/17 06:12:16;;;;;;;;;;;6.10;99.90;;;;;;4946029;28;20013;-76
2022/03/17 06:14:43;;;;;;;;;;;6.10;99.90;;;;;;4930832;28;20034;-76
2022/03/17 06:17:11;;;;;;;;;;;6.10;99.90;;;;;;4948338;28;20013;-75
2022/03/17 06:19:40;;;;;;;;;;;6.10;99.90;;;;;;4933401;29;20396;-75
2022/03/17 06:22:08;;;;;;;;;;;6.10;99.90;;;;;;4949797;28;19972;-75
2022/03/17 06:24:35;;;;;;;;;;;6.10;99.90;;;;;;4948399;28;19958;-76
2022/03/17 06:27:02;;;;;;;;;;;6.10;99.90;;;;;;4947162;28;19930;-75
2022/03/17 06:29:29;;;;;;;;;;;6.10;99.90;;;;;;4946338;28;19926;-75
2022/03/17 06:31:56;;;;;;;;;;;6.10;99.90;;;;;;4945855;28;19930;-76
2022/03/17 06:34:23;;;;;;;;;;;6.10;99.90;;;;;;4934834;28;19970;-75
2022/03/17 06:36:50;;;;;;;;;;;6.10;99.90;;;;;;4942534;28;20554;-76
2022/03/17 06:39:18;;;;;;;;;;;6.10;99.90;;;;;;4942685;28;19946;-74
2022/03/17 06:41:45;;;;;;;;;;;6.10;99.90;;;;;;4950178;28;20394;-75
2022/03/17 06:44:12;;;;;;;;;;;6.10;99.90;;;;;;4951691;28;19942;-76
2022/03/17 06:46:39;;;;;;;;;;;6.10;99.90;;;;;;4930097;28;19966;-75
2022/03/17 06:49:06;;;;;;;;;;;6.10;99.90;;;;;;4947662;28;19935;-76
2022/03/17 06:51:33;;;;;;;;;;;6.00;99.90;;;;;;4934853;28;20660;-77
2022/03/17 06:54:00;;;;;;;;;;;6.00;99.90;;;;;;4954160;28;19959;-78
2022/03/17 06:56:28;;;;;;;;;;;6.00;99.90;;;;;;4933781;28;20456;-78
2022/03/17 06:58:55;;;;;;;;;;;6.00;99.90;;;;;;4952948;28;19926;-78
2022/03/17 07:01:22;;;;;;;;;;;6.00;99.90;;;;;;4950534;28;19960;-78
2022/03/17 07:03:49;;;;;;;;;;;6.00;99.90;;;;;;4944359;28;19927;-77
2022/03/17 07:06:16;;;;;;;;;;;6.10;99.90;;;;;;4947469;28;19927;-78
2022/03/17 07:08:43;;;;;;;;;;;6.00;99.90;;;;;;4953452;28;19926;-77
2022/03/17 07:11:10;;;;;;;;;;;6.00;99.90;;;;;;4953833;28;19927;-78
2022/03/17 07:13:38;;;;;;;;;;;6.00;99.90;;;;;;4956656;28;19930;-77
2022/03/17 07:16:05;;;;;;;;;;;6.00;99.90;;;;;;4954672;28;19953;-77
2022/03/17 07:18:32;;;;;;;;;;;6.00;99.90;;;;;;4956387;28;19926;-78
2022/03/17 07:20:59;;;;;;;;;;;6.00;99.90;;;;;;4946498;28;20037;-77
2022/03/17 07:23:26;;;;;;;;;;;6.00;99.90;;;;;;4957784;28;19935;-77
2022/03/17 07:25:53;;;;;;;;;;;6.00;99.90;;;;;;4958452;28;19938;-77
2022/03/17 07:28:21;;;;;;;;;;;6.00;99.90;;;;;;4955025;28;20419;-77
2022/03/17 07:30:49;;;;;;;;;;;6.00;99.90;;;;;;4955937;28;19933;-77
2022/03/17 07:33:16;;;;;;;;;;;6.00;99.90;;;;;;4958748;28;20327;-79
2022/03/17 07:35:43;;;;;;;;;;;6.00;99.90;;;;;;4956289;28;19950;-77
2022/03/17 07:38:10;;;;;;;;;;;6.00;99.90;;;;;;4951386;28;20388;-77
2022/03/17 07:40:37;;;;;;;;;;;6.00;99.90;;;;;;4957719;28;19926;-77
2022/03/17 07:43:05;;;;;;;;;;;6.00;99.90;;;;;;4955960;28;19927;-78
2022/03/17 07:45:32;;;;;;;;;;;6.00;99.90;;;;;;4956363;28;19927;-75
2022/03/17 07:48:19;;;;;;;;;;;6.00;99.90;;;;;;4957627;28;20349;-74
2022/03/17 07:50:58;;;;;;;;;;;6.00;99.90;;;;;;4955688;28;19969;-76
2022/03/17 07:53:26;;;;;;;;;;;6.00;99.90;;;;;;4952199;28;20270;-77
2022/03/17 07:55:55;;;;;;;;;;;6.10;99.90;;;;;;4947384;28;19981;-76
2022/03/17 07:58:23;;;;;;;;;;;6.10;99.90;;;;;;4960783;28;19958;-77
2022/03/17 08:00:51;;;;;;;;;;;6.10;99.90;;;;;;4938004;28;19930;-76
2022/03/17 08:03:20;;;;;;;;;;;6.10;99.90;;;;;;4953931;28;19981;-75
2022/03/17 08:05:47;;;;;;;;;;;6.10;99.90;;;;;;4957076;28;19926;-76
2022/03/17 08:08:14;;;;;;;;;;;6.10;99.90;;;;;;4953980;28;19927;-76
2022/03/17 08:10:41;;;;;;;;;;;6.10;99.90;;;;;;4957143;28;19926;-76
2022/03/17 08:13:09;;;;;;;;;;;6.10;99.90;;;;;;4952926;28;19974;-75
2022/03/17 08:15:36;;;;;;;;;;;6.10;99.90;;;;;;4937685;28;19934;-77
2022/03/17 08:18:03;;;;;;;;;;;6.10;99.90;;;;;;4953508;28;19926;-75
2022/03/17 08:20:31;;;;;;;;;;;6.10;99.90;;;;;;4955208;28;19934;-76
2022/03/17 08:22:58;;;;;;;;;;;6.10;99.90;;;;;;4956525;28;19927;-76
2022/03/17 08:25:25;;;;;;;;;;;6.10;99.90;;;;;;4958830;28;19937;-76
2022/03/17 08:27:52;;;;;;;;;;;6.10;99.90;;;;;;4954437;28;19981;-76
2022/03/17 08:30:19;;;;;;;;;;;6.10;99.90;;;;;;4949836;28;20013;-76
2022/03/17 08:32:46;;;;;;;;;;;6.20;99.90;;;;;;4954495;28;20658;-76
2022/03/17 08:35:14;;;;;;;;;;;6.10;99.90;;;;;;4957466;28;19927;-76
2022/03/17 08:37:42;;;;;;;;;;;6.10;99.90;;;;;;4950707;28;19926;-76
2022/03/17 08:40:10;;;;;;;;;;;6.10;99.90;;;;;;4952043;28;19927;-77
2022/03/17 08:42:37;;;;;;;;;;;6.10;99.90;;;;;;4954598;28;19958;-76
2022/03/17 08:49:18;;;;;;;;;;;6.10;99.90;;;;;;4959321;28;20010;-76
2022/03/17 08:50:39;;;;;;;;;;;6.10;99.90;;;;;;4953321;28;19922;-76
2022/03/17 08:53:07;;;;;;;;;;;6.10;99.90;;;;;;4955195;28;19930;-76
2022/03/17 08:55:34;;;;;;;;;;;6.20;99.90;;;;;;4955370;28;20017;-76
2022/03/17 08:58:01;;;;;;;;;;;6.20;99.90;;;;;;4958390;28;20286;-76
2022/03/17 09:00:30;;;;;;;;;;;6.20;99.90;;;;;;4944984;28;19926;-75
2022/03/17 09:03:01;;;;;;;;;;;6.20;99.90;;;;;;4953408;28;19934;-76
2022/03/17 09:05:28;;;;;;;;;;;6.20;99.90;;;;;;4951983;28;20025;-76
2022/03/17 09:07:56;;;;;;;;;;;6.20;99.90;;;;;;4951478;28;19926;-76
2022/03/17 09:10:24;;;;;;;;;;;6.20;99.90;;;;;;4956201;28;19970;-76
2022/03/17 09:12:57;;;;;;;;;;;6.20;99.90;;;;;;4952335;28;19946;-75
2022/03/17 09:15:24;;;;;;;;;;;6.20;99.90;;;;;;4949298;28;19926;-76
2022/03/17 09:17:51;;;;;;;;;;;6.20;99.90;;;;;;4950361;28;19926;-77
2022/03/17 09:20:18;;;;;;;;;;;6.20;99.90;;;;;;4953537;28;19969;-76
2022/03/17 09:22:45;;;;;;;;;;;6.20;99.90;;;;;;4935332;28;19942;-77
2022/03/17 09:25:12;;;;;;;;;;;6.20;99.90;;;;;;4958266;28;19927;-77
2022/03/17 09:27:41;;;;;;;;;;;6.20;99.90;;;;;;4960906;28;19927;-75
2022/03/17 09:30:08;;;;;;;;;;;6.30;99.90;;;;;;4948466;28;19927;-77
2022/03/17 09:32:35;;;;;;;;;;;6.30;99.90;;;;;;4953547;28;19930;-76
2022/03/17 09:35:03;;;;;;;;;;;6.30;99.90;;;;;;4939195;29;19927;-76
2022/03/17 09:37:30;;;;;;;;;;;6.30;99.90;;;;;;4949300;28;19927;-75
2022/03/17 09:39:57;;;;;;;;;;;6.30;99.90;;;;;;4932892;28;19949;-76
2022/03/17 09:42:25;;;;;;;;;;;6.30;99.90;;;;;;4935071;29;19926;-76
2022/03/17 09:44:54;;;;;;;;;;;6.30;99.90;;;;;;4950111;28;20397;-78
2022/03/17 09:47:21;;;;;;;;;;;6.30;99.90;;;;;;4950539;28;19930;-76
2022/03/17 09:49:49;;;;;;;;;;;6.30;99.90;;;;;;4950646;28;19926;-76
2022/03/17 09:52:17;;;;;;;;;;;6.30;99.90;;;;;;4956775;28;19930;-76
2022/03/17 09:54:44;;;;;;;;;;;6.30;99.90;;;;;;4956249;28;20389;-76
2022/03/17 09:57:11;;;;;;;;;;;6.40;99.90;;;;;;4950850;28;19933;-76
2022/03/17 09:59:38;;;;;;;;;;;6.40;99.90;;;;;;4952398;28;19934;-76
2022/03/17 10:02:07;;;;;;;;;;;6.40;99.90;;;;;;4951822;28;19953;-75
2022/03/17 10:04:35;;;;;;;;;;;6.40;99.90;;;;;;4958376;28;19973;-76
2022/03/17 10:07:02;;;;;;;;;;;6.40;99.90;;;;;;4956059;28;20020;-75
2022/03/17 10:09:29;;;;;;;;;;;6.40;99.90;;;;;;4956996;28;19930;-76
2022/03/17 10:12:02;;;;;;;;;;;6.40;99.90;;;;;;4962860;28;20503;-76
2022/03/17 10:14:36;;;;;;;;;;;6.50;99.90;;;;;;4955207;28;19927;-77
2022/03/17 10:17:07;;;;;;;;;;;6.50;99.90;;;;;;4956256;28;20306;-76
2022/03/17 10:19:35;;;;;;;;;;;6.50;99.90;;;;;;4953721;28;19927;-76
2022/03/17 10:22:08;;;;;;;;;;;6.50;99.90;;;;;;4950545;28;19930;-76
2022/03/17 10:24:36;;;;;;;;;;;6.50;99.90;;;;;;4952246;28;20045;-77
2022/03/17 10:27:03;;;;;;;;;;;6.50;99.90;;;;;;4938267;28;19952;-76
2022/03/17 10:29:30;;;;;;;;;;;6.50;99.90;;;;;;4954681;28;19949;-77
2022/03/17 10:31:59;;;;;;;;;;;6.60;99.90;;;;;;4951304;28;19926;-76
2022/03/17 10:34:29;;;;;;;;;;;6.60;99.90;;;;;;4934800;28;20009;-76
2022/03/17 10:37:07;;;;;;;;;;;6.60;99.90;;;;;;4944811;28;19935;-76
2022/03/17 10:39:38;;;;;;;;;;;6.60;99.90;;;;;;4947650;28;19933;-76
2022/03/17 10:42:12;;;;;;;;;;;6.60;99.90;;;;;;4949590;28;20281;-76
2022/03/17 10:44:39;;;;;;;;;;;6.60;99.90;;;;;;4955818;28;20022;-76
2022/03/17 10:47:06;;;;;;;;;;;6.70;99.90;;;;;;4963264;28;20305;-75
2022/03/17 10:49:36;;;;;;;;;;;6.70;99.90;;;;;;4930953;28;19934;-76
2022/03/17 10:52:03;;;;;;;;;;;6.70;99.90;;;;;;4950623;28;20025;-77
2022/03/17 10:54:31;;;;;;;;;;;6.70;99.90;;;;;;4939856;28;20306;-75
2022/03/17 10:56:59;;;;;;;;;;;6.70;99.90;;;;;;4951651;28;19949;-76
2022/03/17 10:59:36;;;;;;;;;;;6.70;99.90;;;;;;4946025;28;20415;-75
2022/03/17 11:02:08;;;;;;;;;;;6.70;99.90;;;;;;4953194;28;19966;-76
2022/03/17 11:04:37;;;;;;;;;;;6.80;99.90;;;;;;4950190;28;20013;-76
2022/03/17 11:07:05;;;;;;;;;;;6.80;99.90;;;;;;4949504;28;19930;-76
2022/03/17 11:09:33;;;;;;;;;;;6.80;99.90;;;;;;4949076;28;19997;-75
2022/03/17 11:12:00;;;;;;;;;;;6.80;99.90;;;;;;4959369;28;19939;-77
2022/03/17 11:14:27;;;;;;;;;;;6.80;99.90;;;;;;4934162;28;20282;-78
2022/03/17 11:16:57;;;;;;;;;;;6.80;99.90;;;;;;4959863;28;20443;-76
2022/03/17 11:19:24;;;;;;;;;;;6.80;99.90;;;;;;4955392;28;19934;-76
2022/03/17 11:22:05;;;;;;;;;;;6.90;99.90;;;;;;4953165;28;20293;-75
2022/03/17 11:24:32;;;;;;;;;;;6.90;99.90;;;;;;4953304;28;19985;-76
2022/03/17 11:27:07;;;;;;;;;;;6.90;99.90;;;;;;4936184;28;19927;-76
2022/03/17 11:29:38;;;;;;;;;;;6.90;99.90;;;;;;4947182;28;19926;-76
2022/03/17 11:32:08;;;;;;;;;;;7.00;99.90;;;;;;4945870;28;20397;-76
2022/03/17 11:34:43;;;;;;;;;;;7.00;99.90;;;;;;4945930;28;20292;-76
2022/03/17 11:37:31;;;;;;;;;;;7.00;99.90;;;;;;4949090;28;19927;-76
2022/03/17 11:40:03;;;;;;;;;;;7.00;99.90;;;;;;4954609;28;20324;-76
2022/03/17 11:42:35;;;;;;;;;;;7.00;99.90;;;;;;4952191;28;19933;-76
2022/03/17 11:45:04;;;;;;;;;;;7.10;99.90;;;;;;4954929;28;19994;-76
2022/03/17 11:47:36;;;;;;;;;;;7.10;99.90;;;;;;4954088;28;21202;-76
2022/03/17 11:50:18;;;;;;;;;;;7.10;99.90;;;;;;4956955;28;20033;-76
2022/03/17 11:52:50;;;;;;;;;;;7.10;99.90;;;;;;4951101;28;20040;-76
2022/03/17 11:55:44;;;;;;;;;;;7.10;99.90;;;;;;4935032;28;19926;-76
2022/03/17 11:58:32;;;;;;;;;;;7.10;99.90;;;;;;4922156;28;19957;-76
2022/03/17 12:01:03;;;;;;;;;;;7.20;99.90;;;;;;4952499;28;20034;-76
2022/03/17 12:03:30;;;;;;;;;;;7.20;99.90;;;;;;4948987;28;19931;-76
2022/03/17 12:06:24;;;;;;;;;;;7.20;99.90;;;;;;4959141;28;19935;-76
2022/03/17 12:08:55;;;;;;;;;;;7.20;99.90;;;;;;4931846;28;19931;-77
2022/03/17 12:11:26;;;;;;;;;;;7.20;99.90;;;;;;4948496;28;20331;-77
2022/03/17 12:14:13;;;;;;;;;;;7.30;99.90;;;;;;4958061;28;19934;-77
2022/03/17 12:16:43;;;;;;;;;;;7.30;99.90;;;;;;4953225;28;19974;-77
2022/03/17 12:19:09;;;;;;;;;;;7.30;99.90;;;;;;4944934;28;20323;-76
2022/03/17 12:21:55;;;;;;;;;;;7.30;99.90;;;;;;4955711;28;19927;-76
2022/03/17 12:24:33;;;;;;;;;;;7.40;99.90;;;;;;4936066;28;19938;-76
2022/03/17 12:27:04;;;;;;;;;;;7.40;99.90;;;;;;4956401;28;19933;-76
2022/03/17 12:29:31;;;;;;;;;;;7.40;99.90;;;;;;4960298;28;19934;-76
2022/03/17 12:32:05;;;;;;;;;;;7.40;99.90;;;;;;4949716;28;20398;-76
2022/03/17 12:34:32;;;;;;;;;;;7.50;99.90;;;;;;4941713;28;20070;-77
2022/03/17 12:37:00;;;;;;;;;;;7.50;99.90;;;;;;4949965;28;20495;-78
2022/03/17 12:39:28;;;;;;;;;;;7.50;99.90;;;;;;4949510;28;19934;-77
2022/03/17 12:41:55;;;;;;;;;;;7.50;99.90;;;;;;4932266;28;19965;-77
2022/03/17 12:44:22;;;;;;;;;;;7.50;99.90;;;;;;4947863;28;20316;-77
2022/03/17 12:46:50;;;;;;;;;;;7.60;99.90;;;;;;4948608;28;19958;-77
2022/03/17 12:49:18;;;;;;;;;;;7.60;99.90;;;;;;4928204;29;20310;-76
2022/03/17 12:51:45;;;;;;;;;;;7.50;99.90;;;;;;4943114;28;19934;-77
2022/03/17 12:54:13;;;;;;;;;;;7.60;99.90;;;;;;4949546;28;20664;-76
2022/03/17 12:56:51;;;;;;;;;;;7.60;99.90;;;;;;4944263;28;20392;-77
2022/03/17 12:59:18;;;;;;;;;;;7.60;99.90;;;;;;4953250;28;20266;-77
2022/03/17 13:01:46;;;;;;;;;;;7.70;99.90;;;;;;4945562;28;19927;-77
2022/03/17 13:04:13;;;;;;;;;;;7.70;99.90;;;;;;4933474;28;19974;-77
2022/03/17 13:06:56;;;;;;;;;;;7.70;99.90;;;;;;4938884;28;19939;-77
2022/03/17 13:09:29;;;;;;;;;;;7.70;99.90;;;;;;4950932;28;19930;-78
2022/03/17 13:14:48;;;;;;;;;;;7.70;99.90;;;;;;4946486;28;20323;-77
2022/03/17 13:17:15;;;;;;;;;;;7.70;99.90;;;;;;4922022;28;19934;-77
2022/03/17 13:19:45;;;;;;;;;;;7.80;99.90;;;;;;4947305;28;20581;-77
2022/03/17 13:22:14;;;;;;;;;;;7.80;99.90;;;;;;4939820;28;20029;-79
2022/03/17 13:24:41;;;;;;;;;;;7.80;99.90;;;;;;4931517;29;19945;-78
2022/03/17 13:27:08;;;;;;;;;;;7.80;99.90;;;;;;4990848;23;19929;-79
2022/03/17 13:29:36;;;;;;;;;;;7.80;99.90;;;;;;5011066;28;20413;-79
2022/03/17 13:32:04;;;;;;;;;;;7.80;99.90;;;;;;5003169;28;19930;-79
2022/03/17 13:34:33;;;;;;;;;;;7.80;99.90;;;;;;4995909;28;19926;-79
2022/03/17 13:37:01;;;;;;;;;;;7.80;99.90;;;;;;4990616;28;19925;-79
2022/03/17 13:39:31;;;;;;;;;;;7.80;99.90;;;;;;4985624;28;19937;-80
2022/03/17 13:41:58;;;;;;;;;;;7.80;99.90;;;;;;4969971;28;20415;-79
2022/03/17 13:44:25;;;;;;;;;;;7.80;99.90;;;;;;4991779;28;20056;-79
2022/03/17 13:46:52;;;;;;;;;;;7.90;99.90;;;;;;4990879;28;20360;-80
2022/03/17 13:49:26;;;;;;;;;;;7.90;99.90;;;;;;4991154;28;19957;-80
2022/03/17 13:51:53;;;;;;;;;;;7.90;99.90;;;;;;4979180;28;20307;-79
2022/03/17 13:54:20;;;;;;;;;;;7.80;99.90;;;;;;4972649;28;20320;-80
2022/03/17 13:56:48;;;;;;;;;;;7.90;99.90;;;;;;4988619;28;19926;-80
2022/03/17 13:59:16;;;;;;;;;;;7.90;99.90;;;;;;4964092;28;21841;-80
2022/03/17 14:01:42;;;;;;;;;;;7.90;99.90;;;;;;4988613;28;19968;-81
2022/03/17 14:04:10;;;;;;;;;;;7.90;99.90;;;;;;4986480;28;19941;-80
2022/03/17 14:06:37;;;;;;;;;;;7.90;99.90;;;;;;4969872;28;19926;-80
2022/03/17 14:09:06;;;;;;;;;;;7.90;99.90;;;;;;4974433;28;19933;-78
2022/03/17 14:11:34;;;;;;;;;;;7.90;99.90;;;;;;4971059;28;19929;-77
2022/03/17 14:14:04;;;;;;;;;;;7.90;99.90;;;;;;4974779;28;20152;-80
2022/03/17 14:16:31;;;;;;;;;;;7.90;99.90;;;;;;4982812;28;19940;-80
2022/03/17 14:19:00;;;;;;;;;;;7.90;99.90;;;;;;4967728;28;19930;-79
2022/03/17 14:21:27;;;;;;;;;;;7.90;99.90;;;;;;4970563;28;19972;-79
2022/03/17 14:24:12;;;;;;;;;;;7.90;99.90;;;;;;4991860;28;19929;-79
2022/03/17 14:26:40;;;;;;;;;;;7.90;99.90;;;;;;4992170;28;19921;-80
2022/03/17 14:29:09;;;;;;;;;;;7.90;99.90;;;;;;4972622;28;19926;-80
2022/03/17 14:31:37;;;;;;;;;;;7.90;99.90;;;;;;4994171;28;20613;-79
2022/03/17 14:34:05;;;;;;;;;;;7.90;99.90;;;;;;4985565;28;19937;-79
2022/03/17 14:36:33;;;;;;;;;;;7.90;99.90;;;;;;4964456;28;19926;-80
2022/03/17 14:39:00;;;;;;;;;;;7.90;99.90;;;;;;4969199;28;19926;-79
2022/03/17 14:41:27;;;;;;;;;;;7.90;99.90;;;;;;4987460;28;20332;-79
2022/03/17 14:43:56;;;;;;;;;;;7.90;99.90;;;;;;4986624;28;20164;-78
2022/03/17 14:46:24;;;;;;;;;;;7.90;99.90;;;;;;4972918;28;20392;-79
2022/03/17 14:48:52;;;;;;;;;;;7.90;99.90;;;;;;4991626;28;20012;-78